createdAt,value
2018-03-11T00:01:19.427Z,7.00
2018-03-11T00:03:47.564Z,7.00
2018-03-11T00:06:15.701Z,7.10
2018-03-11T00:08:43.827Z,7.10
2018-03-11T00:11:12.794Z,7.20
2018-03-11T00:13:40.916Z,7.20
2018-03-11T00:16:09.818Z,7.20
2018-03-11T00:18:37.952Z,7.20
2018-03-11T00:21:06.060Z,7.20
2018-03-11T00:23:34.183Z,7.20
2018-03-11T00:26:02.274Z,7.10
2018-03-11T00:28:30.394Z,7.10
2018-03-11T00:30:58.478Z,7.10
2018-03-11T00:33:26.660Z,7.10
2018-03-11T00:35:54.829Z,7.00
2018-03-11T00:38:22.975Z,7.00
2018-03-11T00:40:51.866Z,7.10
2018-03-11T00:43:19.981Z,7.10
2018-03-11T00:45:48.074Z,7.10
2018-03-11T00:48:16.177Z,7.10
2018-03-11T00:50:44.967Z,7.10
2018-03-11T00:53:13.400Z,7.10
2018-03-11T00:55:46.738Z,7.20
2018-03-11T00:58:15.003Z,7.20
2018-03-11T01:00:43.506Z,7.20
2018-03-11T01:03:12.434Z,7.20
2018-03-11T01:05:40.568Z,7.20
2018-03-11T01:08:08.655Z,7.20
2018-03-11T01:10:36.748Z,7.20
2018-03-11T01:13:04.972Z,7.20
2018-03-11T01:15:33.860Z,7.20
2018-03-11T01:18:02.723Z,7.20
2018-03-11T01:20:30.847Z,7.20
2018-03-11T01:22:58.950Z,7.10
2018-03-11T01:25:27.205Z,7.10
2018-03-11T01:27:55.331Z,7.00
2018-03-11T01:30:23.429Z,7.00
2018-03-11T01:32:51.569Z,7.00
2018-03-11T01:35:20.436Z,7.00
2018-03-11T01:37:48.604Z,7.10
2018-03-11T01:40:16.744Z,7.10
2018-03-11T01:42:45.886Z,7.10
2018-03-11T01:45:14.220Z,7.10
2018-03-11T01:47:42.300Z,7.20
2018-03-11T01:50:10.384Z,7.20
2018-03-11T01:55:47.170Z,7.20
2018-03-11T01:58:15.289Z,7.30
2018-03-11T02:00:43.891Z,7.30
2018-03-11T02:03:11.968Z,7.30
2018-03-11T02:05:40.118Z,7.30
2018-03-11T02:08:08.231Z,7.30
2018-03-11T02:10:36.311Z,7.30
2018-03-11T02:13:04.454Z,7.30
2018-03-11T02:15:32.560Z,7.30
2018-03-11T02:18:00.649Z,7.30
2018-03-11T02:20:28.743Z,7.30
2018-03-11T02:22:56.839Z,7.40
2018-03-11T02:25:24.940Z,7.30
2018-03-11T02:27:53.045Z,7.30
2018-03-11T02:30:22.140Z,7.20
2018-03-11T02:32:50.240Z,7.20
2018-03-11T02:35:19.105Z,7.20
2018-03-11T02:37:47.225Z,7.20
2018-03-11T02:40:16.195Z,7.20
2018-03-11T02:42:44.318Z,7.20
2018-03-11T02:45:12.425Z,7.20
2018-03-11T02:47:43.669Z,7.20
2018-03-11T02:50:12.593Z,7.10
2018-03-11T02:52:40.691Z,7.10
2018-03-11T02:55:08.797Z,7.10
2018-03-11T02:57:36.884Z,7.20
2018-03-11T03:00:04.985Z,7.20
2018-03-11T03:02:33.851Z,7.40
2018-03-11T03:05:02.072Z,7.40
2018-03-11T03:07:31.009Z,7.40
2018-03-11T03:09:59.174Z,7.40
2018-03-11T03:12:27.348Z,7.40
2018-03-11T03:14:56.187Z,7.60
2018-03-11T03:17:24.310Z,7.60
2018-03-11T03:19:52.395Z,7.60
2018-03-11T03:22:20.498Z,7.70
2018-03-11T03:24:50.062Z,7.70
2018-03-11T03:27:18.162Z,7.70
2018-03-11T03:29:46.254Z,7.80
2018-03-11T03:32:14.595Z,7.80
2018-03-11T03:34:42.678Z,7.80
2018-03-11T03:37:10.787Z,7.80
2018-03-11T03:39:38.874Z,7.80
2018-03-11T03:42:06.999Z,7.80
2018-03-11T03:44:35.177Z,7.80
2018-03-11T03:47:03.284Z,7.90
2018-03-11T03:49:32.143Z,8.00
2018-03-11T03:52:00.390Z,7.90
2018-03-11T03:54:28.475Z,8.00
2018-03-11T03:56:56.595Z,8.00
2018-03-11T03:59:24.698Z,8.00
2018-03-11T04:01:52.784Z,7.90
2018-03-11T04:04:20.909Z,8.00
2018-03-11T04:06:50.048Z,8.00
2018-03-11T04:09:18.236Z,8.00
2018-03-11T04:11:46.337Z,8.00
2018-03-11T04:14:14.477Z,8.00
2018-03-11T04:16:42.583Z,8.00
2018-03-11T04:19:10.716Z,7.90
2018-03-11T04:21:38.794Z,8.00
2018-03-11T04:24:07.108Z,8.00
2018-03-11T04:26:35.323Z,8.00
2018-03-11T04:29:03.425Z,8.00
2018-03-11T04:31:31.517Z,8.00
2018-03-11T04:34:01.507Z,8.00
2018-03-11T04:36:29.619Z,8.00
2018-03-11T04:38:57.759Z,8.00
2018-03-11T04:41:26.842Z,8.00
2018-03-11T04:43:54.958Z,8.00
2018-03-11T04:46:23.033Z,8.10
2018-03-11T04:48:51.935Z,8.10
2018-03-11T04:51:20.023Z,8.10
2018-03-11T04:53:48.882Z,8.10
2018-03-11T04:56:16.977Z,8.10
2018-03-11T04:58:45.082Z,8.10
2018-03-11T05:01:13.940Z,8.10
2018-03-11T05:03:42.127Z,8.10
2018-03-11T05:06:10.256Z,8.10
2018-03-11T05:08:39.112Z,8.10
2018-03-11T05:11:07.218Z,8.10
2018-03-11T05:13:35.317Z,8.10
2018-03-11T05:16:03.405Z,8.10
2018-03-11T05:18:32.270Z,8.10
2018-03-11T05:21:00.541Z,8.10
2018-03-11T05:23:28.675Z,8.10
2018-03-11T05:25:56.821Z,8.10
2018-03-11T05:28:24.996Z,8.10
2018-03-11T05:30:53.129Z,8.10
2018-03-11T05:33:21.268Z,8.10
2018-03-11T05:35:49.336Z,8.10
2018-03-11T05:38:17.423Z,8.10
2018-03-11T05:40:45.859Z,8.10
2018-03-11T05:43:13.950Z,8.10
2018-03-11T05:45:42.096Z,8.10
2018-03-11T05:48:10.207Z,8.10
2018-03-11T05:50:38.347Z,8.10
2018-03-11T05:53:06.860Z,8.00
2018-03-11T05:55:34.960Z,8.10
2018-03-11T05:58:03.078Z,8.10
2018-03-11T06:00:31.180Z,8.10
2018-03-11T06:03:00.063Z,8.10
2018-03-11T06:05:29.018Z,8.20
2018-03-11T06:07:57.132Z,8.10
2018-03-11T06:10:25.240Z,8.20
2018-03-11T06:12:54.129Z,8.20
2018-03-11T06:15:22.227Z,8.20
2018-03-11T06:17:51.083Z,8.30
2018-03-11T06:20:19.191Z,8.20
2018-03-11T06:22:47.286Z,8.30
2018-03-11T06:25:15.381Z,8.30
2018-03-11T06:27:43.465Z,8.30
2018-03-11T06:30:12.330Z,8.30
2018-03-11T06:32:40.410Z,8.30
2018-03-11T06:35:08.491Z,8.30
2018-03-11T06:37:36.614Z,8.30
2018-03-11T06:40:05.491Z,8.40
2018-03-11T06:42:33.830Z,8.40
2018-03-11T06:45:01.979Z,8.40
2018-03-11T06:47:30.126Z,8.40
2018-03-11T06:49:58.999Z,8.40
2018-03-11T06:52:27.090Z,8.40
2018-03-11T06:54:55.177Z,8.40
2018-03-11T06:57:23.280Z,8.40
2018-03-11T06:59:52.119Z,8.40
2018-03-11T07:02:20.251Z,8.40
2018-03-11T07:04:48.367Z,8.40
2018-03-11T07:07:16.552Z,8.40
2018-03-11T07:09:44.653Z,8.40
2018-03-11T07:12:13.558Z,8.40
2018-03-11T07:14:41.637Z,8.50
2018-03-11T07:17:09.725Z,8.50
2018-03-11T07:19:37.843Z,8.60
2018-03-11T07:22:06.199Z,8.60
2018-03-11T07:24:34.323Z,8.70
2018-03-11T07:27:02.444Z,8.80
2018-03-11T07:29:30.616Z,8.80
2018-03-11T07:31:58.756Z,8.90
2018-03-11T07:34:27.617Z,9.10
2018-03-11T07:36:55.703Z,9.10
2018-03-11T07:39:23.793Z,9.10
2018-03-11T07:41:52.190Z,9.20
2018-03-11T07:44:20.273Z,9.30
2018-03-11T07:46:48.369Z,9.40
2018-03-11T07:49:16.535Z,9.60
2018-03-11T07:51:46.028Z,9.90
2018-03-11T07:54:14.119Z,9.90
2018-03-11T07:56:42.222Z,10.00
2018-03-11T07:59:10.347Z,10.20
2018-03-11T08:01:39.258Z,10.60
2018-03-11T08:04:07.452Z,10.60
2018-03-11T08:06:35.570Z,10.80
2018-03-11T08:09:03.779Z,11.00
2018-03-11T08:11:31.928Z,11.10
2018-03-11T08:14:00.027Z,11.30
2018-03-11T08:16:28.131Z,11.30
2018-03-11T08:18:56.254Z,11.40
2018-03-11T08:21:24.399Z,11.50
2018-03-11T08:23:52.519Z,11.60
2018-03-11T08:26:21.387Z,11.90
2018-03-11T08:28:50.049Z,11.80
2018-03-11T08:31:18.269Z,12.00
2018-03-11T08:33:46.480Z,12.00
2018-03-11T08:36:15.367Z,11.90
2018-03-11T08:38:44.285Z,11.90
2018-03-11T08:41:14.068Z,11.90
2018-03-11T08:43:42.213Z,11.90
2018-03-11T08:46:10.357Z,11.90
2018-03-11T08:48:38.479Z,12.00
2018-03-11T08:51:06.610Z,11.90
2018-03-11T08:53:34.852Z,11.90
2018-03-11T08:56:02.975Z,11.90
2018-03-11T08:58:31.318Z,12.00
2018-03-11T09:01:00.198Z,12.20
2018-03-11T09:03:29.706Z,12.20
2018-03-11T09:05:58.604Z,12.10
2018-03-11T09:08:26.830Z,12.10
2018-03-11T09:10:54.957Z,12.20
2018-03-11T09:13:23.087Z,12.30
2018-03-11T09:15:51.974Z,12.30
2018-03-11T09:18:20.103Z,12.20
2018-03-11T09:20:48.223Z,12.20
2018-03-11T09:23:16.393Z,12.20
2018-03-11T09:25:44.563Z,12.20
2018-03-11T09:28:12.780Z,12.20
2018-03-11T09:30:40.964Z,12.20
2018-03-11T09:33:09.178Z,12.30
2018-03-11T09:35:37.347Z,12.30
2018-03-11T09:38:05.472Z,12.30
2018-03-11T09:40:33.570Z,12.40
2018-03-11T09:43:01.732Z,12.40
2018-03-11T09:45:30.643Z,12.50
2018-03-11T09:47:59.587Z,12.50
2018-03-11T09:50:27.713Z,12.50
2018-03-11T09:52:55.933Z,12.50
2018-03-11T09:55:26.376Z,12.50
2018-03-11T09:57:55.145Z,12.60
2018-03-11T10:00:23.303Z,12.60
2018-03-11T10:02:52.168Z,12.70
2018-03-11T10:05:21.119Z,12.80
2018-03-11T10:07:49.446Z,12.70
2018-03-11T10:10:18.414Z,12.80
2018-03-11T10:12:46.548Z,12.80
2018-03-11T10:15:15.080Z,12.80
2018-03-11T10:17:43.285Z,12.90
2018-03-11T10:20:11.481Z,13.00
2018-03-11T10:22:39.733Z,13.00
2018-03-11T10:25:07.838Z,13.00
2018-03-11T10:27:39.840Z,13.10
2018-03-11T10:30:08.767Z,13.10
2018-03-11T10:32:36.821Z,13.10
2018-03-11T10:35:04.973Z,13.10
2018-03-11T10:37:33.102Z,13.10
2018-03-11T10:40:01.981Z,13.20
2018-03-11T10:42:30.264Z,13.20
2018-03-11T10:44:58.374Z,13.30
2018-03-11T10:47:27.285Z,13.40
2018-03-11T10:49:55.475Z,13.40
2018-03-11T10:52:23.764Z,13.50
2018-03-11T10:54:51.889Z,13.50
2018-03-11T10:57:20.143Z,13.60
2018-03-11T10:59:48.240Z,13.70
2018-03-11T11:02:19.076Z,13.80
2018-03-11T11:04:52.995Z,13.90
2018-03-11T11:07:21.429Z,13.90
2018-03-11T11:09:49.578Z,14.00
2018-03-11T11:12:17.770Z,14.10
2018-03-11T11:14:46.613Z,14.20
2018-03-11T11:17:14.713Z,14.20
2018-03-11T11:19:43.600Z,14.30
2018-03-11T11:22:11.835Z,14.30
2018-03-11T11:24:39.955Z,14.30
2018-03-11T11:27:08.094Z,14.30
2018-03-11T11:29:36.262Z,14.40
2018-03-11T11:32:04.447Z,14.60
2018-03-11T11:34:32.587Z,14.80
2018-03-11T11:37:00.842Z,15.00
2018-03-11T11:39:28.993Z,15.40
2018-03-11T11:41:57.807Z,15.60
2018-03-11T11:44:25.890Z,15.80
2018-03-11T11:46:54.008Z,15.90
2018-03-11T11:49:22.146Z,16.00
2018-03-11T11:51:50.388Z,16.10
2018-03-11T11:54:18.562Z,16.10
2018-03-11T11:56:47.481Z,16.20
2018-03-11T11:59:15.615Z,16.10
2018-03-11T12:01:43.754Z,16.20
2018-03-11T12:04:11.910Z,16.20
2018-03-11T12:06:40.258Z,16.30
2018-03-11T12:09:08.423Z,16.40
2018-03-11T12:11:36.713Z,16.40
2018-03-11T12:14:04.904Z,16.40
2018-03-11T12:16:33.134Z,16.40
2018-03-11T12:19:01.271Z,16.40
2018-03-11T12:21:29.364Z,16.40
2018-03-11T12:23:57.496Z,16.50
2018-03-11T12:26:25.796Z,16.50
2018-03-11T12:28:54.712Z,16.50
2018-03-11T12:31:22.897Z,16.50
2018-03-11T12:33:51.465Z,16.40
2018-03-11T12:36:22.009Z,16.30
2018-03-11T12:38:50.236Z,16.40
2018-03-11T12:41:18.323Z,16.40
2018-03-11T12:43:46.440Z,16.50
2018-03-11T12:46:14.518Z,16.50
2018-03-11T12:48:42.634Z,16.50
2018-03-11T12:51:10.777Z,16.50
2018-03-11T12:53:40.396Z,16.60
2018-03-11T12:56:08.595Z,16.60
2018-03-11T12:58:36.883Z,16.60
2018-03-11T13:01:05.103Z,16.90
2018-03-11T13:03:33.216Z,17.00
2018-03-11T13:06:02.326Z,17.10
2018-03-11T13:08:30.414Z,17.10
2018-03-11T13:10:58.672Z,17.10
2018-03-11T13:13:27.573Z,17.10
2018-03-11T13:15:55.911Z,17.10
2018-03-11T13:18:24.024Z,17.10
2018-03-11T13:21:03.681Z,17.20
2018-03-11T13:23:31.829Z,17.20
2018-03-11T13:26:00.376Z,17.20
2018-03-11T13:28:41.132Z,17.40
2018-03-11T13:31:09.497Z,17.40
2018-03-11T13:33:49.466Z,17.50
2018-03-11T13:36:17.656Z,17.50
2018-03-11T13:38:57.586Z,17.40
2018-03-11T13:41:25.722Z,17.40
2018-03-11T13:43:54.608Z,17.50
2018-03-11T13:46:34.488Z,17.50
2018-03-11T13:49:03.391Z,17.50
2018-03-11T13:51:47.152Z,17.40
2018-03-11T13:54:15.240Z,17.40
2018-03-11T13:56:43.540Z,17.20
2018-03-11T13:59:11.659Z,17.10
2018-03-11T14:01:39.837Z,16.90
2018-03-11T14:04:08.011Z,16.80
2018-03-11T14:06:36.163Z,16.70
2018-03-11T14:09:05.125Z,16.70
2018-03-11T14:11:33.225Z,16.70
2018-03-11T14:14:01.404Z,16.70
2018-03-11T14:16:29.537Z,16.70
2018-03-11T14:18:57.772Z,16.70
2018-03-11T14:21:25.866Z,16.80
2018-03-11T14:23:53.983Z,16.80
2018-03-11T14:26:22.180Z,16.70
2018-03-11T14:28:50.313Z,16.60
2018-03-11T14:31:18.417Z,16.40
2018-03-11T14:33:46.532Z,16.30
2018-03-11T14:36:14.737Z,16.20
2018-03-11T14:38:42.874Z,16.10
2018-03-11T14:41:11.083Z,16.10
2018-03-11T14:43:39.995Z,16.10
2018-03-11T14:46:08.152Z,16.00
2018-03-11T14:48:36.268Z,16.00
2018-03-11T14:51:04.418Z,16.00
2018-03-11T14:53:32.679Z,16.00
2018-03-11T14:56:00.829Z,16.10
2018-03-11T14:58:29.963Z,16.20
2018-03-11T15:00:58.066Z,16.20
2018-03-11T15:03:26.169Z,16.20
2018-03-11T15:05:54.298Z,16.20
2018-03-11T15:08:22.428Z,16.20
2018-03-11T15:10:50.835Z,16.20
2018-03-11T15:13:18.942Z,16.20
2018-03-11T15:15:47.096Z,16.10
2018-03-11T15:18:15.210Z,16.00
2018-03-11T15:20:44.486Z,15.90
2018-03-11T15:23:12.614Z,15.90
2018-03-11T15:25:41.703Z,15.90
2018-03-11T15:28:09.867Z,15.90
2018-03-11T15:30:38.025Z,15.90
2018-03-11T15:33:06.188Z,15.80
2018-03-11T15:35:34.299Z,15.80
2018-03-11T15:38:02.406Z,15.80
2018-03-11T15:40:30.538Z,15.80
2018-03-11T15:42:58.628Z,15.80
2018-03-11T15:45:26.736Z,15.70
2018-03-11T15:47:54.891Z,15.70
2018-03-11T15:50:22.999Z,15.60
2018-03-11T15:52:51.240Z,15.50
2018-03-11T15:55:19.418Z,15.40
2018-03-11T15:57:47.572Z,15.30
2018-03-11T16:00:15.775Z,15.20
2018-03-11T16:02:43.892Z,15.10
2018-03-11T16:05:11.999Z,15.10
2018-03-11T16:07:40.129Z,15.00
2018-03-11T16:10:08.513Z,14.90
2018-03-11T16:12:36.760Z,14.90
2018-03-11T16:15:04.927Z,14.80
2018-03-11T16:17:33.011Z,14.70
2018-03-11T16:20:01.151Z,14.60
2018-03-11T16:22:29.254Z,14.50
2018-03-11T16:24:58.124Z,14.40
2018-03-11T16:27:26.416Z,14.40
2018-03-11T16:29:54.601Z,14.40
2018-03-11T16:32:22.740Z,14.30
2018-03-11T16:34:50.866Z,14.20
2018-03-11T16:37:19.150Z,14.20
2018-03-11T16:39:47.338Z,14.10
2018-03-11T16:42:15.437Z,14.10
2018-03-11T16:44:43.601Z,14.00
2018-03-11T16:47:11.817Z,14.00
2018-03-11T16:49:39.933Z,13.90
2018-03-11T16:52:08.827Z,13.70
2018-03-11T16:54:38.645Z,13.70
2018-03-11T16:57:08.354Z,13.60
2018-03-11T16:59:36.452Z,13.60
2018-03-11T17:02:05.463Z,13.60
2018-03-11T17:04:34.350Z,13.60
2018-03-11T17:07:02.512Z,13.60
2018-03-11T17:09:31.157Z,13.60
2018-03-11T17:12:00.031Z,13.60
2018-03-11T17:14:28.145Z,13.50
2018-03-11T17:16:57.095Z,13.40
2018-03-11T17:19:25.227Z,13.40
2018-03-11T17:21:54.114Z,13.40
2018-03-11T17:24:22.206Z,13.40
2018-03-11T17:26:50.537Z,13.40
2018-03-11T17:29:18.727Z,13.40
2018-03-11T17:31:46.845Z,13.40
2018-03-11T17:34:15.696Z,13.40
2018-03-11T17:36:43.930Z,13.40
2018-03-11T17:39:12.096Z,13.40
2018-03-11T17:41:40.320Z,13.40
2018-03-11T17:44:08.403Z,13.30
2018-03-11T17:46:36.577Z,13.30
2018-03-11T17:49:05.084Z,13.30
2018-03-11T17:51:33.191Z,13.30
2018-03-11T17:54:01.333Z,13.30
2018-03-11T17:56:29.461Z,13.30
2018-03-11T17:58:57.639Z,13.20
2018-03-11T18:01:25.844Z,13.20
2018-03-11T18:03:53.896Z,13.20
2018-03-11T18:06:22.055Z,13.10
2018-03-11T18:08:50.213Z,13.10
2018-03-11T18:11:18.295Z,13.10
2018-03-11T18:13:46.466Z,13.10
2018-03-11T18:16:14.669Z,13.00
2018-03-11T18:18:42.882Z,13.10
2018-03-11T18:21:11.018Z,13.00
2018-03-11T18:23:39.136Z,13.00
2018-03-11T18:26:07.332Z,13.00
2018-03-11T18:28:35.431Z,12.90
2018-03-11T18:31:03.636Z,12.90
2018-03-11T18:33:31.749Z,12.90
2018-03-11T18:35:59.966Z,12.80
2018-03-11T18:38:28.083Z,12.70
2018-03-11T18:40:56.955Z,12.60
2018-03-11T18:43:25.139Z,12.60
2018-03-11T18:45:53.266Z,12.60
2018-03-11T18:48:22.167Z,12.50
2018-03-11T18:50:51.059Z,12.50
2018-03-11T18:53:19.167Z,12.50
2018-03-11T18:55:47.282Z,12.50
2018-03-11T18:58:15.518Z,12.40
2018-03-11T19:00:43.633Z,12.40
2018-03-11T19:03:11.780Z,12.40
2018-03-11T19:05:39.891Z,12.50
2018-03-11T19:08:08.067Z,12.50
2018-03-11T19:10:36.987Z,12.50
2018-03-11T19:13:05.165Z,12.50
2018-03-11T19:15:34.037Z,12.50
2018-03-11T19:18:02.185Z,12.50
2018-03-11T19:20:31.115Z,12.50
2018-03-11T19:22:59.226Z,12.50
2018-03-11T19:25:28.117Z,12.50
2018-03-11T19:27:56.222Z,12.50
2018-03-11T19:30:24.366Z,12.60
2018-03-11T19:32:52.555Z,12.60
2018-03-11T19:35:20.689Z,12.60
2018-03-11T19:37:48.847Z,12.60
2018-03-11T19:40:16.993Z,12.60
2018-03-11T19:42:45.115Z,12.40
2018-03-11T19:45:13.286Z,12.30
2018-03-11T19:47:41.504Z,12.20
2018-03-11T19:50:10.402Z,12.10
2018-03-11T19:52:38.588Z,12.00
2018-03-11T19:55:07.529Z,11.90
2018-03-11T19:57:35.631Z,11.90
2018-03-11T20:00:03.808Z,11.90
2018-03-11T20:02:32.056Z,11.90
2018-03-11T20:05:00.935Z,11.80
2018-03-11T20:07:29.058Z,11.80
2018-03-11T20:09:57.168Z,11.80
2018-03-11T20:12:25.310Z,11.80
2018-03-11T20:14:53.431Z,11.80
2018-03-11T20:17:21.558Z,11.70
2018-03-11T20:19:49.753Z,11.80
2018-03-11T20:22:17.890Z,11.80
2018-03-11T20:24:46.008Z,11.80
2018-03-11T20:27:14.130Z,11.80
2018-03-11T20:29:42.289Z,11.80
2018-03-11T20:32:10.678Z,11.80
2018-03-11T20:34:38.776Z,11.80
2018-03-11T20:37:06.878Z,11.70
2018-03-11T20:39:35.090Z,11.70
2018-03-11T20:42:03.225Z,11.70
2018-03-11T20:44:31.407Z,11.70
2018-03-11T20:47:00.295Z,11.60
2018-03-11T20:49:28.428Z,11.60
2018-03-11T20:51:56.542Z,11.50
2018-03-11T20:54:24.662Z,11.50
2018-03-11T20:56:52.881Z,11.40
2018-03-11T20:59:20.970Z,11.40
2018-03-11T21:01:49.192Z,11.40
2018-03-11T21:04:17.431Z,11.40
2018-03-11T21:06:45.545Z,11.30
2018-03-11T21:09:13.662Z,11.30
2018-03-11T21:11:41.802Z,11.30
2018-03-11T21:14:09.967Z,11.30
2018-03-11T21:16:38.044Z,11.20
2018-03-11T21:19:06.248Z,11.10
2018-03-11T21:21:34.341Z,11.10
2018-03-11T21:24:02.465Z,11.10
2018-03-11T21:26:30.832Z,11.20
2018-03-11T21:28:59.000Z,11.20
2018-03-11T21:31:27.125Z,11.20
2018-03-11T21:33:55.305Z,11.20
2018-03-11T21:36:23.428Z,11.20
2018-03-11T21:38:51.523Z,11.10
2018-03-11T21:41:19.663Z,11.20
2018-03-11T21:43:47.803Z,11.20
2018-03-11T21:46:15.945Z,11.10
2018-03-11T21:48:44.058Z,11.10
2018-03-11T21:51:12.374Z,11.10
2018-03-11T21:53:41.321Z,11.00
2018-03-11T21:56:09.590Z,11.00
2018-03-11T21:58:37.633Z,11.00
2018-03-11T22:01:05.744Z,11.00
2018-03-11T22:03:33.861Z,11.00
2018-03-11T22:06:02.009Z,11.00
2018-03-11T22:08:30.122Z,11.00
2018-03-11T22:10:58.257Z,11.00
2018-03-11T22:13:26.367Z,11.00
2018-03-11T22:15:54.475Z,11.00
2018-03-11T22:18:22.595Z,11.00
2018-03-11T22:20:50.752Z,11.00
2018-03-11T22:23:18.906Z,11.00
2018-03-11T22:25:47.003Z,11.00
2018-03-11T22:28:15.204Z,11.00
2018-03-11T22:30:43.299Z,11.00
2018-03-11T22:33:11.443Z,10.90
2018-03-11T22:35:39.655Z,10.90
2018-03-11T22:38:07.771Z,10.80
2018-03-11T22:40:36.668Z,10.80
2018-03-11T22:43:05.533Z,10.70
2018-03-11T22:45:33.750Z,10.70
2018-03-11T22:48:02.658Z,10.60
2018-03-11T22:50:30.799Z,10.50
2018-03-11T22:52:58.927Z,10.50
2018-03-11T22:55:27.061Z,10.40
2018-03-11T22:57:55.171Z,10.30
2018-03-11T23:00:23.322Z,10.20
2018-03-11T23:02:51.413Z,10.20
2018-03-11T23:05:19.506Z,10.10
2018-03-11T23:07:47.614Z,10.00
2018-03-11T23:10:15.730Z,10.00
2018-03-11T23:12:43.932Z,10.00
2018-03-11T23:15:12.024Z,9.90
2018-03-11T23:17:40.142Z,9.90
2018-03-11T23:20:08.251Z,9.80
2018-03-11T23:22:37.147Z,9.70
2018-03-11T23:25:05.276Z,9.70
2018-03-11T23:27:33.380Z,9.60
2018-03-11T23:30:01.500Z,9.60
2018-03-11T23:32:29.942Z,9.60
2018-03-11T23:34:58.079Z,9.60
2018-03-11T23:37:26.171Z,9.50
2018-03-11T23:39:54.329Z,9.60
2018-03-11T23:42:22.477Z,9.50
2018-03-11T23:44:50.603Z,9.50
2018-03-11T23:47:18.779Z,9.40
2018-03-11T23:49:46.957Z,9.40
2018-03-11T23:52:15.056Z,9.40
2018-03-11T23:54:43.240Z,9.40
2018-03-11T23:57:11.354Z,9.40
2018-03-11T23:59:40.257Z,9.50
